sensor_id;sensor_type;location;lat;lon;timestamp;temperature;humidity
1680;DHT22;838;51.794;12.258;2024-03-22T00:01:45;9.10;26.80
1680;DHT22;838;51.794;12.258;2024-03-22T00:04:11;9.20;25.50
1680;DHT22;838;51.794;12.258;2024-03-22T00:06:37;9.30;24.20
1680;DHT22;838;51.794;12.258;2024-03-22T00:09:03;9.10;25.20
1680;DHT22;838;51.794;12.258;2024-03-22T00:11:29;9.10;25.70
1680;DHT22;838;51.794;12.258;2024-03-22T00:13:54;9.10;25.80
1680;DHT22;838;51.794;12.258;2024-03-22T00:16:20;9.00;26.80
1680;DHT22;838;51.794;12.258;2024-03-22T00:18:46;9.00;26.00
1680;DHT22;838;51.794;12.258;2024-03-22T00:21:12;9.00;26.60
1680;DHT22;838;51.794;12.258;2024-03-22T00:23:37;9.00;26.60
1680;DHT22;838;51.794;12.258;2024-03-22T00:26:03;9.00;27.20
1680;DHT22;838;51.794;12.258;2024-03-22T00:28:29;9.00;26.80
1680;DHT22;838;51.794;12.258;2024-03-22T00:30:55;9.00;27.90
1680;DHT22;838;51.794;12.258;2024-03-22T00:33:20;9.00;28.10
1680;DHT22;838;51.794;12.258;2024-03-22T00:35:46;9.00;27.70
1680;DHT22;838;51.794;12.258;2024-03-22T00:38:12;9.00;29.10
1680;DHT22;838;51.794;12.258;2024-03-22T00:40:37;9.00;28.40
1680;DHT22;838;51.794;12.258;2024-03-22T00:43:03;9.00;27.60
1680;DHT22;838;51.794;12.258;2024-03-22T00:45:29;9.00;29.80
1680;DHT22;838;51.794;12.258;2024-03-22T00:47:54;9.10;28.20
1680;DHT22;838;51.794;12.258;2024-03-22T00:50:20;9.10;27.40
1680;DHT22;838;51.794;12.258;2024-03-22T00:52:46;9.20;26.80
1680;DHT22;838;51.794;12.258;2024-03-22T00:55:12;9.20;27.30
1680;DHT22;838;51.794;12.258;2024-03-22T00:57:37;9.20;25.30
1680;DHT22;838;51.794;12.258;2024-03-22T01:00:03;9.10;26.30
1680;DHT22;838;51.794;12.258;2024-03-22T01:02:30;9.00;25.90
1680;DHT22;838;51.794;12.258;2024-03-22T01:04:55;8.90;27.70
1680;DHT22;838;51.794;12.258;2024-03-22T01:07:21;8.80;28.60
1680;DHT22;838;51.794;12.258;2024-03-22T01:09:47;8.80;29.00
1680;DHT22;838;51.794;12.258;2024-03-22T01:12:12;8.70;29.90
1680;DHT22;838;51.794;12.258;2024-03-22T01:14:38;8.70;29.80
1680;DHT22;838;51.794;12.258;2024-03-22T01:17:04;8.60;30.70
1680;DHT22;838;51.794;12.258;2024-03-22T01:19:29;8.60;31.70
1680;DHT22;838;51.794;12.258;2024-03-22T01:21:55;8.60;31.80
1680;DHT22;838;51.794;12.258;2024-03-22T01:24:21;8.60;33.60
1680;DHT22;838;51.794;12.258;2024-03-22T01:26:46;8.40;33.80
1680;DHT22;838;51.794;12.258;2024-03-22T01:29:13;8.40;35.40
1680;DHT22;838;51.794;12.258;2024-03-22T01:31:39;8.50;34.20
1680;DHT22;838;51.794;12.258;2024-03-22T01:34:05;8.50;34.00
1680;DHT22;838;51.794;12.258;2024-03-22T01:36:31;8.50;34.50
1680;DHT22;838;51.794;12.258;2024-03-22T01:38:57;8.50;34.40
1680;DHT22;838;51.794;12.258;2024-03-22T01:41:22;8.50;34.60
1680;DHT22;838;51.794;12.258;2024-03-22T01:43:48;8.40;34.20
1680;DHT22;838;51.794;12.258;2024-03-22T01:46:15;8.30;33.90
1680;DHT22;838;51.794;12.258;2024-03-22T01:48:40;8.30;35.50
1680;DHT22;838;51.794;12.258;2024-03-22T01:51:06;8.30;35.40
1680;DHT22;838;51.794;12.258;2024-03-22T01:53:33;8.40;35.20
1680;DHT22;838;51.794;12.258;2024-03-22T01:56:00;8.50;33.70
1680;DHT22;838;51.794;12.258;2024-03-22T01:58:26;8.50;32.20
1680;DHT22;838;51.794;12.258;2024-03-22T02:00:51;8.60;31.40
1680;DHT22;838;51.794;12.258;2024-03-22T02:03:17;8.70;31.10
1680;DHT22;838;51.794;12.258;2024-03-22T02:05:43;8.70;32.20
1680;DHT22;838;51.794;12.258;2024-03-22T02:08:09;8.80;31.10
1680;DHT22;838;51.794;12.258;2024-03-22T02:10:35;8.80;30.40
1680;DHT22;838;51.794;12.258;2024-03-22T02:13:01;8.70;31.80
1680;DHT22;838;51.794;12.258;2024-03-22T02:15:26;8.70;33.80
1680;DHT22;838;51.794;12.258;2024-03-22T02:17:52;8.70;33.40
1680;DHT22;838;51.794;12.258;2024-03-22T02:20:18;8.80;32.60
1680;DHT22;838;51.794;12.258;2024-03-22T02:22:43;8.90;30.30
1680;DHT22;838;51.794;12.258;2024-03-22T02:25:09;9.00;31.20
1680;DHT22;838;51.794;12.258;2024-03-22T02:27:35;9.10;29.10
1680;DHT22;838;51.794;12.258;2024-03-22T02:30:01;9.20;29.00
1680;DHT22;838;51.794;12.258;2024-03-22T02:32:27;9.20;27.90
1680;DHT22;838;51.794;12.258;2024-03-22T02:34:53;9.10;29.20
1680;DHT22;838;51.794;12.258;2024-03-22T02:37:19;9.10;27.50
1680;DHT22;838;51.794;12.258;2024-03-22T02:39:44;9.00;29.40
1680;DHT22;838;51.794;12.258;2024-03-22T02:42:10;9.00;29.30
1680;DHT22;838;51.794;12.258;2024-03-22T02:44:36;8.90;30.30
1680;DHT22;838;51.794;12.258;2024-03-22T02:47:10;9.00;31.40
1680;DHT22;838;51.794;12.258;2024-03-22T02:49:38;9.00;29.50
1680;DHT22;838;51.794;12.258;2024-03-22T02:52:04;9.10;28.70
1680;DHT22;838;51.794;12.258;2024-03-22T02:54:29;9.10;27.00
1680;DHT22;838;51.794;12.258;2024-03-22T02:56:55;9.20;28.40
1680;DHT22;838;51.794;12.258;2024-03-22T02:59:21;9.30;25.70
1680;DHT22;838;51.794;12.258;2024-03-22T03:01:46;9.30;27.60
1680;DHT22;838;51.794;12.258;2024-03-22T03:04:12;9.40;25.80
1680;DHT22;838;51.794;12.258;2024-03-22T03:06:38;9.60;23.80
1680;DHT22;838;51.794;12.258;2024-03-22T03:09:04;9.60;22.90
1680;DHT22;838;51.794;12.258;2024-03-22T03:11:40;9.60;23.60
1680;DHT22;838;51.794;12.258;2024-03-22T03:14:06;9.60;22.50
1680;DHT22;838;51.794;12.258;2024-03-22T03:16:32;9.50;23.50
1680;DHT22;838;51.794;12.258;2024-03-22T03:18:58;9.50;23.70
1680;DHT22;838;51.794;12.258;2024-03-22T03:21:23;9.60;24.40
1680;DHT22;838;51.794;12.258;2024-03-22T03:23:49;9.60;23.20
1680;DHT22;838;51.794;12.258;2024-03-22T03:26:15;9.70;21.60
1680;DHT22;838;51.794;12.258;2024-03-22T03:28:40;9.70;22.10
1680;DHT22;838;51.794;12.258;2024-03-22T03:31:06;9.80;22.20
1680;DHT22;838;51.794;12.258;2024-03-22T03:33:32;9.80;20.60
1680;DHT22;838;51.794;12.258;2024-03-22T03:35:57;9.80;20.20
1680;DHT22;838;51.794;12.258;2024-03-22T03:38:23;9.70;22.00
1680;DHT22;838;51.794;12.258;2024-03-22T03:40:49;9.70;21.70
1680;DHT22;838;51.794;12.258;2024-03-22T03:43:14;9.60;22.50
1680;DHT22;838;51.794;12.258;2024-03-22T03:45:40;9.40;24.30
1680;DHT22;838;51.794;12.258;2024-03-22T03:48:06;9.40;24.50
1680;DHT22;838;51.794;12.258;2024-03-22T03:50:32;9.30;24.70
1680;DHT22;838;51.794;12.258;2024-03-22T03:52:57;9.30;24.60
1680;DHT22;838;51.794;12.258;2024-03-22T03:55:23;9.30;26.30
1680;DHT22;838;51.794;12.258;2024-03-22T03:57:52;9.40;24.50
1680;DHT22;838;51.794;12.258;2024-03-22T04:00:19;9.40;23.90
1680;DHT22;838;51.794;12.258;2024-03-22T04:02:45;9.40;24.90
1680;DHT22;838;51.794;12.258;2024-03-22T04:05:11;9.40;24.40
1680;DHT22;838;51.794;12.258;2024-03-22T04:07:37;9.50;23.40
1680;DHT22;838;51.794;12.258;2024-03-22T04:10:05;9.50;22.70
1680;DHT22;838;51.794;12.258;2024-03-22T04:12:31;9.40;24.60
1680;DHT22;838;51.794;12.258;2024-03-22T04:14:57;9.20;24.60
1680;DHT22;838;51.794;12.258;2024-03-22T04:17:22;9.10;26.10
1680;DHT22;838;51.794;12.258;2024-03-22T04:19:49;9.10;26.90
1680;DHT22;838;51.794;12.258;2024-03-22T04:22:15;9.30;25.60
1680;DHT22;838;51.794;12.258;2024-03-22T04:24:41;9.40;23.20
1680;DHT22;838;51.794;12.258;2024-03-22T04:27:07;9.40;24.40
1680;DHT22;838;51.794;12.258;2024-03-22T04:29:33;9.40;24.30
1680;DHT22;838;51.794;12.258;2024-03-22T04:31:58;9.40;23.90
1680;DHT22;838;51.794;12.258;2024-03-22T04:34:24;9.50;23.50
1680;DHT22;838;51.794;12.258;2024-03-22T04:36:50;9.50;23.00
1680;DHT22;838;51.794;12.258;2024-03-22T04:39:19;9.50;22.50
1680;DHT22;838;51.794;12.258;2024-03-22T04:41:44;9.50;23.60
1680;DHT22;838;51.794;12.258;2024-03-22T04:44:10;9.40;23.60
1680;DHT22;838;51.794;12.258;2024-03-22T04:46:36;9.40;23.10
1680;DHT22;838;51.794;12.258;2024-03-22T04:49:01;9.50;22.50
1680;DHT22;838;51.794;12.258;2024-03-22T04:51:27;9.40;23.70
1680;DHT22;838;51.794;12.258;2024-03-22T04:53:53;9.40;23.00
1680;DHT22;838;51.794;12.258;2024-03-22T04:56:18;9.30;23.60
1680;DHT22;838;51.794;12.258;2024-03-22T04:58:44;9.40;24.20
1680;DHT22;838;51.794;12.258;2024-03-22T05:01:10;9.40;23.00
1680;DHT22;838;51.794;12.258;2024-03-22T05:03:38;9.30;23.40
1680;DHT22;838;51.794;12.258;2024-03-22T05:06:04;9.40;23.90
1680;DHT22;838;51.794;12.258;2024-03-22T05:08:33;9.40;22.50
1680;DHT22;838;51.794;12.258;2024-03-22T05:10:58;9.40;22.90
1680;DHT22;838;51.794;12.258;2024-03-22T05:13:24;9.40;21.90
1680;DHT22;838;51.794;12.258;2024-03-22T05:15:50;9.30;23.70
1680;DHT22;838;51.794;12.258;2024-03-22T05:18:15;9.30;23.60
1680;DHT22;838;51.794;12.258;2024-03-22T05:20:41;9.40;23.90
1680;DHT22;838;51.794;12.258;2024-03-22T05:23:07;9.50;22.10
1680;DHT22;838;51.794;12.258;2024-03-22T05:25:32;9.60;22.10
1680;DHT22;838;51.794;12.258;2024-03-22T05:27:58;9.50;22.70
1680;DHT22;838;51.794;12.258;2024-03-22T05:30:24;9.50;22.10
1680;DHT22;838;51.794;12.258;2024-03-22T05:32:49;9.50;23.50
1680;DHT22;838;51.794;12.258;2024-03-22T05:35:16;9.50;22.90
1680;DHT22;838;51.794;12.258;2024-03-22T05:37:41;9.50;23.10
1680;DHT22;838;51.794;12.258;2024-03-22T05:40:08;9.40;23.50
1680;DHT22;838;51.794;12.258;2024-03-22T05:42:34;9.30;23.70
1680;DHT22;838;51.794;12.258;2024-03-22T05:45:00;9.30;24.10
1680;DHT22;838;51.794;12.258;2024-03-22T05:47:26;9.40;24.20
1680;DHT22;838;51.794;12.258;2024-03-22T05:49:52;9.50;23.20
1680;DHT22;838;51.794;12.258;2024-03-22T05:52:18;9.40;24.10
1680;DHT22;838;51.794;12.258;2024-03-22T05:54:43;9.30;23.50
1680;DHT22;838;51.794;12.258;2024-03-22T05:57:09;9.30;24.60
1680;DHT22;838;51.794;12.258;2024-03-22T05:59:36;9.40;24.20
1680;DHT22;838;51.794;12.258;2024-03-22T06:02:02;9.40;23.90
1680;DHT22;838;51.794;12.258;2024-03-22T06:04:27;9.40;23.50
1680;DHT22;838;51.794;12.258;2024-03-22T06:06:53;9.50;23.50
1680;DHT22;838;51.794;12.258;2024-03-22T06:09:19;9.40;24.20
1680;DHT22;838;51.794;12.258;2024-03-22T06:12:00;9.40;24.70
1680;DHT22;838;51.794;12.258;2024-03-22T06:14:28;9.40;24.30
1680;DHT22;838;51.794;12.258;2024-03-22T06:16:53;9.50;23.70
1680;DHT22;838;51.794;12.258;2024-03-22T06:19:19;9.50;23.50
1680;DHT22;838;51.794;12.258;2024-03-22T06:21:45;9.50;23.10
1680;DHT22;838;51.794;12.258;2024-03-22T06:24:10;9.60;23.60
1680;DHT22;838;51.794;12.258;2024-03-22T06:26:36;9.60;23.60
1680;DHT22;838;51.794;12.258;2024-03-22T06:29:02;9.80;22.60
1680;DHT22;838;51.794;12.258;2024-03-22T06:31:28;9.80;23.40
1680;DHT22;838;51.794;12.258;2024-03-22T06:33:54;9.80;21.90
1680;DHT22;838;51.794;12.258;2024-03-22T06:36:22;10.00;20.80
1680;DHT22;838;51.794;12.258;2024-03-22T06:38:47;10.00;19.40
1680;DHT22;838;51.794;12.258;2024-03-22T06:41:13;10.10;18.70
1680;DHT22;838;51.794;12.258;2024-03-22T06:43:39;10.20;17.60
1680;DHT22;838;51.794;12.258;2024-03-22T06:46:09;10.30;17.10
1680;DHT22;838;51.794;12.258;2024-03-22T06:48:34;10.40;16.70
1680;DHT22;838;51.794;12.258;2024-03-22T06:51:00;10.20;16.80
1680;DHT22;838;51.794;12.258;2024-03-22T06:53:26;10.20;17.20
1680;DHT22;838;51.794;12.258;2024-03-22T06:55:52;10.30;17.30
1680;DHT22;838;51.794;12.258;2024-03-22T06:58:18;10.30;17.40
1680;DHT22;838;51.794;12.258;2024-03-22T07:00:43;10.20;17.90
1680;DHT22;838;51.794;12.258;2024-03-22T07:03:09;10.20;17.20
1680;DHT22;838;51.794;12.258;2024-03-22T07:05:35;10.20;18.00
1680;DHT22;838;51.794;12.258;2024-03-22T07:08:01;10.40;17.20
1680;DHT22;838;51.794;12.258;2024-03-22T07:10:26;10.50;16.70
1680;DHT22;838;51.794;12.258;2024-03-22T07:12:57;10.70;15.30
1680;DHT22;838;51.794;12.258;2024-03-22T07:15:25;10.80;13.80
1680;DHT22;838;51.794;12.258;2024-03-22T07:17:51;10.90;13.70
1680;DHT22;838;51.794;12.258;2024-03-22T07:20:17;10.90;13.80
1680;DHT22;838;51.794;12.258;2024-03-22T07:22:44;10.80;13.90
1680;DHT22;838;51.794;12.258;2024-03-22T07:25:09;10.80;13.80
1680;DHT22;838;51.794;12.258;2024-03-22T07:27:36;10.90;13.70
1680;DHT22;838;51.794;12.258;2024-03-22T07:30:02;10.90;13.40
1680;DHT22;838;51.794;12.258;2024-03-22T07:32:29;11.10;13.90
1680;DHT22;838;51.794;12.258;2024-03-22T07:34:55;11.40;11.60
1680;DHT22;838;51.794;12.258;2024-03-22T07:37:21;11.50;9.70
1680;DHT22;838;51.794;12.258;2024-03-22T07:39:47;11.60;9.10
1680;DHT22;838;51.794;12.258;2024-03-22T07:42:13;11.60;10.00
1680;DHT22;838;51.794;12.258;2024-03-22T07:44:38;11.60;9.10
1680;DHT22;838;51.794;12.258;2024-03-22T07:47:04;11.60;9.60
1680;DHT22;838;51.794;12.258;2024-03-22T07:49:30;11.80;8.40
1680;DHT22;838;51.794;12.258;2024-03-22T07:51:57;12.10;6.90
1680;DHT22;838;51.794;12.258;2024-03-22T07:54:22;12.30;4.90
1680;DHT22;838;51.794;12.258;2024-03-22T07:56:48;12.20;5.40
1680;DHT22;838;51.794;12.258;2024-03-22T07:59:14;12.10;5.60
1680;DHT22;838;51.794;12.258;2024-03-22T08:01:40;12.20;5.90
1680;DHT22;838;51.794;12.258;2024-03-22T08:04:05;12.20;5.60
1680;DHT22;838;51.794;12.258;2024-03-22T08:06:31;12.40;5.50
1680;DHT22;838;51.794;12.258;2024-03-22T08:08:57;12.40;3.70
1680;DHT22;838;51.794;12.258;2024-03-22T08:11:23;12.40;5.00
1680;DHT22;838;51.794;12.258;2024-03-22T08:13:49;12.60;4.60
1680;DHT22;838;51.794;12.258;2024-03-22T08:16:14;12.60;4.20
1680;DHT22;838;51.794;12.258;2024-03-22T08:18:40;12.70;3.70
1680;DHT22;838;51.794;12.258;2024-03-22T08:21:06;12.80;3.50
1680;DHT22;838;51.794;12.258;2024-03-22T08:23:31;12.80;3.90
1680;DHT22;838;51.794;12.258;2024-03-22T08:25:57;12.80;3.80
1680;DHT22;838;51.794;12.258;2024-03-22T08:28:23;12.70;4.10
1680;DHT22;838;51.794;12.258;2024-03-22T08:30:49;12.60;4.70
1680;DHT22;838;51.794;12.258;2024-03-22T08:33:15;12.50;6.20
1680;DHT22;838;51.794;12.258;2024-03-22T08:35:41;12.60;6.60
1680;DHT22;838;51.794;12.258;2024-03-22T08:38:06;12.70;6.70
1680;DHT22;838;51.794;12.258;2024-03-22T08:40:40;12.70;6.00
1680;DHT22;838;51.794;12.258;2024-03-22T08:43:06;12.80;6.10
1680;DHT22;838;51.794;12.258;2024-03-22T08:45:34;12.90;6.10
1680;DHT22;838;51.794;12.258;2024-03-22T08:48:00;13.20;4.90
1680;DHT22;838;51.794;12.258;2024-03-22T08:50:26;13.30;4.30
1680;DHT22;838;51.794;12.258;2024-03-22T08:52:51;13.40;3.80
1680;DHT22;838;51.794;12.258;2024-03-22T08:55:18;13.60;3.00
1680;DHT22;838;51.794;12.258;2024-03-22T08:57:43;13.70;2.00
1680;DHT22;838;51.794;12.258;2024-03-22T09:00:10;13.80;1.30
1680;DHT22;838;51.794;12.258;2024-03-22T09:02:36;14.00;1.40
1680;DHT22;838;51.794;12.258;2024-03-22T09:05:02;14.20;1.00
1680;DHT22;838;51.794;12.258;2024-03-22T09:07:28;14.00;1.00
1680;DHT22;838;51.794;12.258;2024-03-22T09:09:53;13.70;1.00
1680;DHT22;838;51.794;12.258;2024-03-22T09:12:19;13.60;1.00
1680;DHT22;838;51.794;12.258;2024-03-22T09:14:45;13.50;1.10
1680;DHT22;838;51.794;12.258;2024-03-22T09:17:12;13.50;1.30
1680;DHT22;838;51.794;12.258;2024-03-22T09:19:37;13.50;1.00
1680;DHT22;838;51.794;12.258;2024-03-22T09:22:03;13.60;1.10
1680;DHT22;838;51.794;12.258;2024-03-22T09:24:29;13.70;1.00
1680;DHT22;838;51.794;12.258;2024-03-22T09:26:55;13.80;1.00
1680;DHT22;838;51.794;12.258;2024-03-22T09:29:20;13.80;1.00
1680;DHT22;838;51.794;12.258;2024-03-22T09:31:46;13.90;1.00
1680;DHT22;838;51.794;12.258;2024-03-22T09:34:12;14.00;1.00
1680;DHT22;838;51.794;12.258;2024-03-22T09:36:38;14.00;1.00
1680;DHT22;838;51.794;12.258;2024-03-22T09:39:04;14.30;1.00
1680;DHT22;838;51.794;12.258;2024-03-22T09:41:31;14.50;1.00
1680;DHT22;838;51.794;12.258;2024-03-22T09:43:59;14.70;1.00
1680;DHT22;838;51.794;12.258;2024-03-22T09:46:27;14.70;1.00
1680;DHT22;838;51.794;12.258;2024-03-22T09:48:54;14.90;1.00
1680;DHT22;838;51.794;12.258;2024-03-22T09:51:20;15.00;1.00
1680;DHT22;838;51.794;12.258;2024-03-22T09:53:48;15.10;1.00
1680;DHT22;838;51.794;12.258;2024-03-22T09:56:15;15.30;1.00
1680;DHT22;838;51.794;12.258;2024-03-22T09:58:44;15.30;1.00
1680;DHT22;838;51.794;12.258;2024-03-22T10:01:11;15.30;1.00
1680;DHT22;838;51.794;12.258;2024-03-22T10:03:38;15.30;1.00
1680;DHT22;838;51.794;12.258;2024-03-22T10:06:03;15.50;1.00
1680;DHT22;838;51.794;12.258;2024-03-22T10:08:30;15.40;1.00
1680;DHT22;838;51.794;12.258;2024-03-22T10:10:56;15.40;1.00
1680;DHT22;838;51.794;12.258;2024-03-22T10:13:22;15.30;1.00
1680;DHT22;838;51.794;12.258;2024-03-22T10:15:47;15.40;1.00
1680;DHT22;838;51.794;12.258;2024-03-22T10:18:14;15.80;1.00
1680;DHT22;838;51.794;12.258;2024-03-22T10:20:41;15.60;1.00
1680;DHT22;838;51.794;12.258;2024-03-22T10:23:08;15.30;1.00
1680;DHT22;838;51.794;12.258;2024-03-22T10:25:34;15.40;1.00
1680;DHT22;838;51.794;12.258;2024-03-22T10:28:01;15.40;1.00
1680;DHT22;838;51.794;12.258;2024-03-22T10:30:28;15.50;1.00
1680;DHT22;838;51.794;12.258;2024-03-22T10:32:54;15.80;1.00
1680;DHT22;838;51.794;12.258;2024-03-22T10:35:21;15.90;1.00
1680;DHT22;838;51.794;12.258;2024-03-22T10:37:49;15.70;1.00
1680;DHT22;838;51.794;12.258;2024-03-22T10:40:16;15.60;1.00
1680;DHT22;838;51.794;12.258;2024-03-22T10:42:42;15.70;1.00
1680;DHT22;838;51.794;12.258;2024-03-22T10:45:09;15.60;1.00
1680;DHT22;838;51.794;12.258;2024-03-22T10:47:37;15.80;1.00
1680;DHT22;838;51.794;12.258;2024-03-22T10:50:10;15.90;1.00
1680;DHT22;838;51.794;12.258;2024-03-22T10:52:58;16.00;1.00
1680;DHT22;838;51.794;12.258;2024-03-22T10:55:32;16.30;1.00
1680;DHT22;838;51.794;12.258;2024-03-22T10:57:59;16.50;1.00
1680;DHT22;838;51.794;12.258;2024-03-22T11:00:32;16.80;1.00
1680;DHT22;838;51.794;12.258;2024-03-22T11:02:58;16.90;1.00
1680;DHT22;838;51.794;12.258;2024-03-22T11:05:25;17.10;1.00
1680;DHT22;838;51.794;12.258;2024-03-22T11:08:04;17.20;1.00
1680;DHT22;838;51.794;12.258;2024-03-22T11:10:34;17.10;1.00
1680;DHT22;838;51.794;12.258;2024-03-22T11:13:01;16.80;1.00
1680;DHT22;838;51.794;12.258;2024-03-22T11:15:31;16.60;1.00
1680;DHT22;838;51.794;12.258;2024-03-22T11:17:57;16.40;1.00
1680;DHT22;838;51.794;12.258;2024-03-22T11:20:25;16.50;1.00
1680;DHT22;838;51.794;12.258;2024-03-22T11:22:53;16.60;1.00
1680;DHT22;838;51.794;12.258;2024-03-22T11:25:19;16.50;1.00
1680;DHT22;838;51.794;12.258;2024-03-22T11:27:48;16.40;1.00
1680;DHT22;838;51.794;12.258;2024-03-22T11:30:15;16.30;1.00
1680;DHT22;838;51.794;12.258;2024-03-22T11:32:42;16.30;1.00
1680;DHT22;838;51.794;12.258;2024-03-22T11:35:10;16.40;1.00
1680;DHT22;838;51.794;12.258;2024-03-22T11:37:39;16.20;1.00
1680;DHT22;838;51.794;12.258;2024-03-22T11:40:08;16.10;1.00
1680;DHT22;838;51.794;12.258;2024-03-22T11:42:36;16.20;1.00
1680;DHT22;838;51.794;12.258;2024-03-22T11:45:03;16.30;1.00
1680;DHT22;838;51.794;12.258;2024-03-22T11:47:29;16.20;1.00
1680;DHT22;838;51.794;12.258;2024-03-22T11:49:55;16.20;1.00
1680;DHT22;838;51.794;12.258;2024-03-22T11:52:28;16.30;1.00
1680;DHT22;838;51.794;12.258;2024-03-22T11:54:54;16.30;1.00
1680;DHT22;838;51.794;12.258;2024-03-22T11:57:23;16.20;1.00
1680;DHT22;838;51.794;12.258;2024-03-22T11:59:50;16.20;1.00
1680;DHT22;838;51.794;12.258;2024-03-22T12:02:16;16.00;1.00
1680;DHT22;838;51.794;12.258;2024-03-22T12:04:42;16.00;1.00
1680;DHT22;838;51.794;12.258;2024-03-22T12:07:15;16.10;1.00
1680;DHT22;838;51.794;12.258;2024-03-22T12:09:41;16.20;1.00
1680;DHT22;838;51.794;12.258;2024-03-22T12:12:08;16.30;1.00
1680;DHT22;838;51.794;12.258;2024-03-22T12:14:35;16.30;1.00
1680;DHT22;838;51.794;12.258;2024-03-22T12:17:02;16.30;1.00
1680;DHT22;838;51.794;12.258;2024-03-22T12:19:28;16.20;1.00
1680;DHT22;838;51.794;12.258;2024-03-22T12:21:53;16.20;1.00
1680;DHT22;838;51.794;12.258;2024-03-22T12:24:19;16.30;1.00
1680;DHT22;838;51.794;12.258;2024-03-22T12:26:45;16.30;1.00
1680;DHT22;838;51.794;12.258;2024-03-22T12:29:12;16.20;1.00
1680;DHT22;838;51.794;12.258;2024-03-22T12:31:38;16.20;1.00
1680;DHT22;838;51.794;12.258;2024-03-22T12:34:04;16.40;1.00
1680;DHT22;838;51.794;12.258;2024-03-22T12:36:30;16.40;1.00
1680;DHT22;838;51.794;12.258;2024-03-22T12:38:55;16.20;1.00
1680;DHT22;838;51.794;12.258;2024-03-22T12:41:21;16.20;1.00
1680;DHT22;838;51.794;12.258;2024-03-22T12:43:47;16.20;1.00
1680;DHT22;838;51.794;12.258;2024-03-22T12:46:13;16.20;1.00
1680;DHT22;838;51.794;12.258;2024-03-22T12:48:38;16.10;1.00
1680;DHT22;838;51.794;12.258;2024-03-22T12:51:04;16.10;1.00
1680;DHT22;838;51.794;12.258;2024-03-22T12:53:30;16.00;1.00
1680;DHT22;838;51.794;12.258;2024-03-22T12:55:55;16.30;1.00
1680;DHT22;838;51.794;12.258;2024-03-22T12:58:21;16.40;1.00
1680;DHT22;838;51.794;12.258;2024-03-22T13:00:47;16.40;1.00
1680;DHT22;838;51.794;12.258;2024-03-22T13:03:13;16.40;1.00
1680;DHT22;838;51.794;12.258;2024-03-22T13:05:43;16.20;1.00
1680;DHT22;838;51.794;12.258;2024-03-22T13:08:09;15.90;1.00
1680;DHT22;838;51.794;12.258;2024-03-22T13:10:35;15.70;1.00
1680;DHT22;838;51.794;12.258;2024-03-22T13:13:01;15.70;1.00
1680;DHT22;838;51.794;12.258;2024-03-22T13:15:26;15.70;1.00
1680;DHT22;838;51.794;12.258;2024-03-22T13:17:52;15.80;1.00
1680;DHT22;838;51.794;12.258;2024-03-22T13:20:20;15.80;2.00
1680;DHT22;838;51.794;12.258;2024-03-22T13:22:46;15.80;1.80
1680;DHT22;838;51.794;12.258;2024-03-22T13:25:11;16.00;3.10
1680;DHT22;838;51.794;12.258;2024-03-22T13:27:37;15.90;4.00
1680;DHT22;838;51.794;12.258;2024-03-22T13:30:07;15.90;5.90
1680;DHT22;838;51.794;12.258;2024-03-22T13:32:38;15.90;5.80
1680;DHT22;838;51.794;12.258;2024-03-22T13:35:05;15.80;6.30
1680;DHT22;838;51.794;12.258;2024-03-22T13:37:31;15.70;7.00
1680;DHT22;838;51.794;12.258;2024-03-22T13:39:57;15.60;9.30
1680;DHT22;838;51.794;12.258;2024-03-22T13:42:22;15.50;9.10
1680;DHT22;838;51.794;12.258;2024-03-22T13:44:48;15.50;10.30
1680;DHT22;838;51.794;12.258;2024-03-22T13:47:14;15.60;9.60
1680;DHT22;838;51.794;12.258;2024-03-22T13:49:40;15.50;10.40
1680;DHT22;838;51.794;12.258;2024-03-22T13:52:08;15.70;10.80
1680;DHT22;838;51.794;12.258;2024-03-22T13:54:35;15.80;9.60
1680;DHT22;838;51.794;12.258;2024-03-22T13:57:01;15.80;9.10
1680;DHT22;838;51.794;12.258;2024-03-22T13:59:27;15.70;8.20
1680;DHT22;838;51.794;12.258;2024-03-22T14:01:53;15.70;9.80
1680;DHT22;838;51.794;12.258;2024-03-22T14:04:19;15.80;9.00
1680;DHT22;838;51.794;12.258;2024-03-22T14:06:47;15.70;7.00
1680;DHT22;838;51.794;12.258;2024-03-22T14:09:13;15.80;8.00
1680;DHT22;838;51.794;12.258;2024-03-22T14:11:40;15.70;8.60
1680;DHT22;838;51.794;12.258;2024-03-22T14:14:09;15.60;9.20
1680;DHT22;838;51.794;12.258;2024-03-22T14:16:34;15.60;10.60
1680;DHT22;838;51.794;12.258;2024-03-22T14:19:00;15.50;12.10
1680;DHT22;838;51.794;12.258;2024-03-22T14:21:26;15.50;13.70
1680;DHT22;838;51.794;12.258;2024-03-22T14:23:52;15.50;13.60
1680;DHT22;838;51.794;12.258;2024-03-22T14:26:19;15.50;13.60
1680;DHT22;838;51.794;12.258;2024-03-22T14:28:45;15.70;12.00
1680;DHT22;838;51.794;12.258;2024-03-22T14:31:12;15.70;12.20
1680;DHT22;838;51.794;12.258;2024-03-22T14:33:39;15.60;13.20
1680;DHT22;838;51.794;12.258;2024-03-22T14:36:06;15.60;14.00
1680;DHT22;838;51.794;12.258;2024-03-22T14:38:32;15.60;14.50
1680;DHT22;838;51.794;12.258;2024-03-22T14:40:59;15.60;15.40
1680;DHT22;838;51.794;12.258;2024-03-22T14:43:25;15.70;14.80
1680;DHT22;838;51.794;12.258;2024-03-22T14:45:52;15.70;15.60
1680;DHT22;838;51.794;12.258;2024-03-22T14:48:27;15.60;15.80
1680;DHT22;838;51.794;12.258;2024-03-22T14:50:52;15.60;18.00
1680;DHT22;838;51.794;12.258;2024-03-22T14:53:19;15.60;18.60
1680;DHT22;838;51.794;12.258;2024-03-22T14:55:59;15.60;19.40
1680;DHT22;838;51.794;12.258;2024-03-22T14:58:28;15.50;20.00
1680;DHT22;838;51.794;12.258;2024-03-22T15:00:58;15.40;21.90
1680;DHT22;838;51.794;12.258;2024-03-22T15:03:25;15.20;22.60
1680;DHT22;838;51.794;12.258;2024-03-22T15:05:51;15.10;23.70
1680;DHT22;838;51.794;12.258;2024-03-22T15:08:19;15.00;24.90
1680;DHT22;838;51.794;12.258;2024-03-22T15:10:45;14.90;25.40
1680;DHT22;838;51.794;12.258;2024-03-22T15:13:11;14.80;27.70
1680;DHT22;838;51.794;12.258;2024-03-22T15:15:37;14.70;29.30
1680;DHT22;838;51.794;12.258;2024-03-22T15:18:04;14.70;30.10
1680;DHT22;838;51.794;12.258;2024-03-22T15:20:31;14.70;28.80
1680;DHT22;838;51.794;12.258;2024-03-22T15:22:57;14.70;29.40
1680;DHT22;838;51.794;12.258;2024-03-22T15:25:24;14.70;29.60
1680;DHT22;838;51.794;12.258;2024-03-22T15:27:49;14.80;28.60
1680;DHT22;838;51.794;12.258;2024-03-22T15:30:15;14.80;28.50
1680;DHT22;838;51.794;12.258;2024-03-22T15:32:41;14.80;27.90
1680;DHT22;838;51.794;12.258;2024-03-22T15:35:07;14.80;28.20
1680;DHT22;838;51.794;12.258;2024-03-22T15:37:38;14.90;28.70
1680;DHT22;838;51.794;12.258;2024-03-22T15:40:06;14.90;29.10
1680;DHT22;838;51.794;12.258;2024-03-22T15:42:32;15.00;28.30
1680;DHT22;838;51.794;12.258;2024-03-22T15:44:58;15.10;27.30
1680;DHT22;838;51.794;12.258;2024-03-22T15:47:29;15.20;27.70
1680;DHT22;838;51.794;12.258;2024-03-22T15:49:54;15.10;27.00
1680;DHT22;838;51.794;12.258;2024-03-22T15:52:20;15.00;27.90
1680;DHT22;838;51.794;12.258;2024-03-22T15:54:46;14.90;29.00
1680;DHT22;838;51.794;12.258;2024-03-22T15:57:11;15.00;28.30
1680;DHT22;838;51.794;12.258;2024-03-22T15:59:37;15.10;28.40
1680;DHT22;838;51.794;12.258;2024-03-22T16:02:03;15.10;28.10
1680;DHT22;838;51.794;12.258;2024-03-22T16:04:30;15.00;27.80
1680;DHT22;838;51.794;12.258;2024-03-22T16:06:57;15.00;27.00
1680;DHT22;838;51.794;12.258;2024-03-22T16:09:23;15.00;26.60